createdAt,value
2018-10-19T00:01:52.892Z,2.30
2018-10-19T00:04:20.736Z,2.47
2018-10-19T00:06:48.656Z,2.10
2018-10-19T00:09:16.592Z,2.60
2018-10-19T00:11:44.450Z,2.87
2018-10-19T00:14:12.413Z,2.03
2018-10-19T00:16:40.308Z,2.27
2018-10-19T00:19:08.165Z,2.20
2018-10-19T00:21:36.064Z,1.90
2018-10-19T00:24:04.004Z,2.30
2018-10-19T00:26:33.939Z,2.07
2018-10-19T00:29:01.820Z,2.53
2018-10-19T00:31:29.636Z,1.93
2018-10-19T00:33:57.520Z,2.40
2018-10-19T00:36:25.380Z,2.30
2018-10-19T00:38:53.295Z,2.10
2018-10-19T00:41:21.124Z,2.17
2018-10-19T00:43:49.067Z,2.00
2018-10-19T00:46:16.939Z,1.83
2018-10-19T00:48:44.808Z,1.93
2018-10-19T00:51:12.710Z,2.27
2018-10-19T00:53:40.556Z,2.40
2018-10-19T00:56:08.430Z,2.10
2018-10-19T00:58:36.288Z,2.23
2018-10-19T01:01:04.168Z,2.10
2018-10-19T01:03:32.162Z,2.53
2018-10-19T01:06:00.096Z,2.00
2018-10-19T01:08:28.968Z,2.10
2018-10-19T01:10:56.893Z,2.50
2018-10-19T01:13:24.763Z,2.60
2018-10-19T01:15:52.584Z,2.30
2018-10-19T01:18:20.451Z,2.10
2018-10-19T01:20:48.312Z,2.10
2018-10-19T01:23:16.282Z,2.10
2018-10-19T01:25:44.056Z,2.70
2018-10-19T01:28:12.411Z,2.53
2018-10-19T01:30:40.580Z,2.57
2018-10-19T01:33:08.502Z,2.40
2018-10-19T01:35:36.340Z,2.60
2018-10-19T01:38:04.206Z,2.60
2018-10-19T01:40:32.081Z,2.50
2018-10-19T01:42:59.925Z,2.83
2018-10-19T01:45:29.088Z,2.43
2018-10-19T01:47:57.205Z,3.20
2018-10-19T01:50:25.045Z,2.10
2018-10-19T01:52:52.986Z,2.57
2018-10-19T01:55:20.824Z,2.90
2018-10-19T01:57:48.687Z,2.20
2018-10-19T02:00:16.524Z,2.30
2018-10-19T02:02:44.408Z,2.00
2018-10-19T02:05:13.364Z,2.50
2018-10-19T02:07:41.164Z,2.60
2018-10-19T02:10:09.025Z,2.63
2018-10-19T02:12:36.909Z,2.60
2018-10-19T02:15:05.258Z,3.00
2018-10-19T02:17:33.077Z,2.30
2018-10-19T02:20:00.919Z,2.77
2018-10-19T02:22:28.781Z,3.00
2018-10-19T02:24:56.628Z,2.20
2018-10-19T02:27:24.544Z,2.60
2018-10-19T02:29:52.384Z,2.50
2018-10-19T02:32:20.241Z,2.50
2018-10-19T02:34:48.128Z,2.70
2018-10-19T02:37:16.030Z,2.70
2018-10-19T02:39:43.933Z,2.83
2018-10-19T02:42:11.800Z,2.50
2018-10-19T02:44:39.664Z,2.10
2018-10-19T02:47:07.567Z,2.57
2018-10-19T02:49:35.409Z,2.60
2018-10-19T02:52:03.268Z,2.53
2018-10-19T02:54:31.153Z,3.70
2018-10-19T02:56:59.051Z,3.30
2018-10-19T02:59:26.908Z,3.80
2018-10-19T03:01:54.797Z,3.80
2018-10-19T03:04:22.737Z,3.50
2018-10-19T03:06:50.592Z,3.33
2018-10-19T03:09:18.487Z,2.27
2018-10-19T03:11:46.306Z,2.80
2018-10-19T03:14:14.200Z,2.80
2018-10-19T03:16:42.059Z,3.10
2018-10-19T03:19:09.899Z,3.00
2018-10-19T03:21:37.797Z,2.70
2018-10-19T03:24:05.653Z,2.53
2018-10-19T03:26:33.544Z,2.80
2018-10-19T03:29:01.394Z,3.03
2018-10-19T03:31:29.271Z,2.57
2018-10-19T03:33:57.116Z,2.60
2018-10-19T03:36:25.005Z,2.63
2018-10-19T03:38:52.901Z,2.50
2018-10-19T03:41:20.731Z,2.63
2018-10-19T03:43:48.621Z,2.90
2018-10-19T03:46:16.555Z,2.43
2018-10-19T03:48:44.408Z,2.60
2018-10-19T03:51:12.402Z,3.53
2018-10-19T03:53:40.263Z,3.07
2018-10-19T03:56:08.128Z,2.93
2018-10-19T03:58:35.973Z,3.10
2018-10-19T04:01:03.857Z,3.00
2018-10-19T04:03:31.802Z,2.77
2018-10-19T04:05:59.691Z,3.57
2018-10-19T04:08:27.558Z,2.90
2018-10-19T04:10:55.448Z,3.10
2018-10-19T04:13:23.316Z,2.73
2018-10-19T04:15:51.152Z,2.70
2018-10-19T04:18:19.025Z,3.17
2018-10-19T04:20:46.884Z,3.10
2018-10-19T04:23:14.897Z,3.10
2018-10-19T04:25:42.621Z,3.00
2018-10-19T04:28:10.485Z,3.50
2018-10-19T04:30:39.384Z,3.10
2018-10-19T04:33:07.410Z,3.50
2018-10-19T04:35:35.147Z,2.90
2018-10-19T04:38:03.444Z,3.13
2018-10-19T04:40:31.376Z,3.33
2018-10-19T04:42:59.228Z,3.13
2018-10-19T04:45:27.176Z,2.80
2018-10-19T04:47:55.049Z,3.13
2018-10-19T04:50:22.948Z,3.70
2018-10-19T04:52:51.815Z,3.23
2018-10-19T04:55:20.780Z,2.80
2018-10-19T04:57:48.661Z,2.90
2018-10-19T05:00:19.187Z,3.33
2018-10-19T05:02:47.750Z,3.00
2018-10-19T05:05:15.726Z,3.20
2018-10-19T05:07:44.548Z,3.50
2018-10-19T05:10:12.391Z,3.17
2018-10-19T05:12:40.357Z,4.20
2018-10-19T05:15:09.019Z,3.20
2018-10-19T05:18:40.169Z,3.10
2018-10-19T05:21:08.057Z,3.77
2018-10-19T05:23:35.929Z,3.20
2018-10-19T05:26:05.176Z,3.43
2018-10-19T05:28:33.048Z,3.13
2018-10-19T05:31:00.876Z,3.77
2018-10-19T05:33:29.768Z,3.50
2018-10-19T05:35:57.628Z,3.50
2018-10-19T05:38:25.512Z,3.07
2018-10-19T05:40:53.381Z,3.53
2018-10-19T05:43:21.268Z,3.67
2018-10-19T05:45:49.108Z,3.27
2018-10-19T05:48:17.036Z,3.43
2018-10-19T05:50:44.935Z,2.97
2018-10-19T05:53:12.933Z,3.40
2018-10-19T05:55:40.658Z,3.13
2018-10-19T05:58:08.528Z,3.47
2018-10-19T06:00:36.436Z,3.30
2018-10-19T06:03:04.320Z,4.50
2018-10-19T06:05:32.199Z,3.30
2018-10-19T06:08:00.129Z,3.00
2018-10-19T06:10:28.008Z,3.33
2018-10-19T06:12:55.865Z,2.70
2018-10-19T06:15:23.724Z,3.20
2018-10-19T06:17:51.568Z,3.50
2018-10-19T06:20:19.448Z,2.57
2018-10-19T06:22:47.336Z,2.87
2018-10-19T06:25:15.193Z,3.03
2018-10-19T06:27:43.060Z,3.20
2018-10-19T06:30:10.953Z,3.27
2018-10-19T06:32:39.786Z,3.57
2018-10-19T06:35:08.070Z,2.87
2018-10-19T06:37:35.960Z,2.77
2018-10-19T06:40:03.797Z,4.37
2018-10-19T06:42:31.687Z,2.73
2018-10-19T06:45:00.556Z,3.00
2018-10-19T06:47:29.519Z,3.00
2018-10-19T06:49:57.310Z,2.60
2018-10-19T06:52:25.219Z,3.40
2018-10-19T06:54:53.060Z,2.97
2018-10-19T06:57:20.909Z,3.30
2018-10-19T06:59:48.796Z,2.93
2018-10-19T07:02:16.773Z,3.27
2018-10-19T07:04:44.520Z,3.10
2018-10-19T07:07:13.436Z,2.87
2018-10-19T07:09:41.304Z,3.00
2018-10-19T07:12:09.224Z,3.03
2018-10-19T07:14:37.042Z,3.40
2018-10-19T07:17:04.935Z,2.90
2018-10-19T07:19:32.763Z,3.10
2018-10-19T07:22:00.608Z,3.60
2018-10-19T07:24:30.540Z,3.23
2018-10-19T07:26:58.408Z,3.00
2018-10-19T07:29:26.322Z,3.70
2018-10-19T07:31:54.196Z,3.17
2018-10-19T07:34:22.026Z,2.83
2018-10-19T07:36:49.874Z,3.10
2018-10-19T07:39:17.724Z,4.03
2018-10-19T07:41:45.621Z,4.13
2018-10-19T07:44:13.577Z,3.00
2018-10-19T07:46:41.420Z,3.27
2018-10-19T07:49:09.329Z,3.60
2018-10-19T07:51:37.165Z,3.60
2018-10-19T07:54:05.093Z,4.17
2018-10-19T07:56:32.921Z,3.50
2018-10-19T07:59:00.822Z,3.70
2018-10-19T08:01:28.647Z,3.60
2018-10-19T08:03:56.518Z,5.00
2018-10-19T08:06:24.371Z,3.37
2018-10-19T08:08:52.226Z,3.43
2018-10-19T08:11:20.152Z,4.20
2018-10-19T08:13:47.964Z,4.00
2018-10-19T08:16:15.868Z,4.25
2018-10-19T08:18:43.712Z,4.25
2018-10-19T08:21:11.636Z,4.20
2018-10-19T08:23:39.456Z,4.70
2018-10-19T08:26:07.371Z,4.30
2018-10-19T08:28:35.181Z,3.95
2018-10-19T08:31:03.033Z,4.23
2018-10-19T08:33:30.897Z,3.90
2018-10-19T08:35:58.784Z,4.30
2018-10-19T08:38:26.652Z,4.00
2018-10-19T08:40:54.595Z,4.27
2018-10-19T08:43:22.452Z,3.70
2018-10-19T08:45:50.345Z,4.27
2018-10-19T08:48:21.937Z,3.97
2018-10-19T08:50:50.791Z,4.57
2018-10-19T08:53:18.677Z,4.30
2018-10-19T08:55:46.584Z,4.33
2018-10-19T08:58:14.493Z,4.40
2018-10-19T09:00:43.384Z,4.70
2018-10-19T09:03:11.268Z,4.80
2018-10-19T09:05:39.136Z,4.33
2018-10-19T09:08:06.997Z,3.90
2018-10-19T09:10:34.864Z,4.10
2018-10-19T09:13:02.724Z,4.23
2018-10-19T09:15:30.564Z,3.70
2018-10-19T09:17:58.456Z,3.97
2018-10-19T09:20:26.335Z,3.90
2018-10-19T09:22:54.197Z,4.30
2018-10-19T09:25:22.051Z,4.00
2018-10-19T09:27:49.908Z,4.00
2018-10-19T09:30:17.776Z,4.00
2018-10-19T09:32:45.627Z,4.20
2018-10-19T09:35:13.616Z,3.73
2018-10-19T09:37:41.373Z,4.23
2018-10-19T09:40:09.289Z,4.30
2018-10-19T09:42:37.155Z,4.10
2018-10-19T09:45:05.249Z,3.90
2018-10-19T09:47:34.184Z,4.33
2018-10-19T09:50:01.943Z,3.83
2018-10-19T09:52:30.824Z,4.17
2018-10-19T09:54:58.780Z,3.93
2018-10-19T09:57:26.555Z,4.60
2018-10-19T09:59:54.460Z,4.00
2018-10-19T10:02:22.291Z,3.30
2018-10-19T10:04:51.188Z,2.97
2018-10-19T10:07:19.044Z,3.00
2018-10-19T10:09:46.900Z,3.77
2018-10-19T10:12:14.804Z,3.20
2018-10-19T10:14:42.676Z,2.83
2018-10-19T10:17:10.660Z,2.97
2018-10-19T10:19:38.504Z,3.10
2018-10-19T10:22:06.379Z,3.00
2018-10-19T10:24:34.254Z,3.07
2018-10-19T10:27:02.084Z,3.37
2018-10-19T10:29:29.961Z,3.20
2018-10-19T10:31:57.842Z,3.30
2018-10-19T10:34:26.712Z,2.90
2018-10-19T10:36:54.620Z,3.07
2018-10-19T10:39:22.593Z,2.80
2018-10-19T10:41:50.316Z,2.77
2018-10-19T10:44:18.184Z,3.30
2018-10-19T10:46:46.096Z,3.13
2018-10-19T10:49:14.002Z,2.60
2018-10-19T10:51:42.823Z,3.00
2018-10-19T10:54:10.670Z,3.40
2018-10-19T10:56:38.604Z,3.70
2018-10-19T10:59:06.529Z,3.03
2018-10-19T11:01:34.379Z,3.50
2018-10-19T11:04:03.289Z,2.90
2018-10-19T11:06:31.136Z,2.50
2018-10-19T11:08:58.985Z,2.75
2018-10-19T11:11:26.867Z,3.20
2018-10-19T11:13:54.735Z,2.80
2018-10-19T11:16:22.616Z,3.10
2018-10-19T11:18:50.513Z,3.63
2018-10-19T11:21:18.360Z,4.00
2018-10-19T11:23:46.209Z,3.67
2018-10-19T11:26:14.061Z,4.03
2018-10-19T11:28:42.947Z,4.70
2018-10-19T11:31:10.978Z,3.30
2018-10-19T11:33:38.717Z,3.97
2018-10-19T11:36:06.611Z,3.63
2018-10-19T11:38:34.408Z,3.90
2018-10-19T11:41:02.302Z,3.00
2018-10-19T11:43:30.159Z,2.90
2018-10-19T11:45:58.136Z,3.00
2018-10-19T11:48:27.001Z,3.00
2018-10-19T11:50:54.880Z,3.00
2018-10-19T11:53:22.760Z,2.80
2018-10-19T11:55:50.628Z,2.97
2018-10-19T11:58:18.584Z,2.20
2018-10-19T12:00:46.392Z,2.57
2018-10-19T12:03:15.256Z,2.73
2018-10-19T12:05:43.108Z,2.70
2018-10-19T12:08:11.976Z,2.60
2018-10-19T12:10:39.881Z,2.50
2018-10-19T12:13:07.766Z,2.87
2018-10-19T12:15:35.632Z,2.40
2018-10-19T12:18:03.467Z,2.77
2018-10-19T12:20:31.327Z,3.10
2018-10-19T12:22:59.219Z,2.60
2018-10-19T12:27:54.215Z,2.50
2018-10-19T12:30:22.091Z,2.90
2018-10-19T12:35:17.057Z,2.17
2018-10-19T12:37:44.992Z,2.37
2018-10-19T12:40:13.848Z,2.83
2018-10-19T12:50:03.533Z,2.93
2018-10-19T13:02:19.845Z,2.23
2018-10-19T13:21:59.128Z,2.00
2018-10-19T13:24:26.952Z,2.47
2018-10-19T13:26:54.841Z,2.17
2018-10-19T13:49:01.328Z,2.77
2018-10-19T13:51:29.452Z,3.10
2018-10-19T13:53:58.287Z,3.03
2018-10-19T14:06:15.657Z,2.97
2018-10-19T14:08:43.572Z,2.43
2018-10-19T14:13:38.940Z,2.20
2018-10-19T14:16:06.844Z,2.40
2018-10-19T14:18:34.706Z,2.80
2018-10-19T14:21:02.611Z,2.35
2018-10-19T14:28:26.608Z,2.40
2018-10-19T14:43:10.895Z,2.10
2018-10-19T15:00:24.432Z,2.40
2018-10-19T15:10:15.869Z,4.80
2018-10-19T15:12:43.836Z,4.50
2018-10-19T15:32:24.151Z,5.30
2018-10-19T16:09:14.407Z,3.60
2018-10-19T16:11:42.508Z,3.67
2018-10-19T16:14:10.416Z,3.90
2018-10-19T16:16:38.331Z,3.83
2018-10-19T16:21:33.272Z,3.40
2018-10-19T16:26:28.267Z,3.67
2018-10-19T16:28:56.192Z,3.60
2018-10-19T16:31:24.327Z,4.10
2018-10-19T16:33:52.227Z,4.07
2018-10-19T16:36:20.120Z,4.17
2018-10-19T16:38:48.992Z,3.60
2018-10-19T16:41:16.841Z,3.53
2018-10-19T16:43:44.727Z,3.93
2018-10-19T16:46:13.075Z,3.80
2018-10-19T16:48:41.131Z,3.80
2018-10-19T16:51:09.106Z,3.73
2018-10-19T16:53:36.943Z,4.37
2018-10-19T16:56:04.864Z,3.77
2018-10-19T16:58:32.752Z,7.17
2018-10-19T17:01:00.604Z,14.63
2018-10-19T17:03:28.535Z,19.87
2018-10-19T17:05:56.471Z,23.17
2018-10-19T17:08:24.300Z,16.17
2018-10-19T17:10:52.169Z,17.03
2018-10-19T17:13:20.058Z,14.63
2018-10-19T17:15:48.956Z,15.13
2018-10-19T17:18:16.857Z,8.80
2018-10-19T17:20:44.754Z,9.10
2018-10-19T17:23:12.632Z,9.70
2018-10-19T17:25:40.516Z,8.30
2018-10-19T17:28:09.370Z,8.90
2018-10-19T17:30:37.303Z,9.10
2018-10-19T17:33:05.191Z,10.50
2018-10-19T17:35:37.980Z,9.20
2018-10-19T17:38:06.900Z,9.27
2018-10-19T17:40:34.797Z,10.17
2018-10-19T17:43:05.114Z,11.33
2018-10-19T17:45:32.961Z,11.20
2018-10-19T17:48:00.838Z,11.03
2018-10-19T17:50:28.707Z,13.13
2018-10-19T17:52:56.541Z,13.60
2018-10-19T17:55:25.517Z,11.97
2018-10-19T17:57:53.404Z,10.93
2018-10-19T18:00:21.255Z,10.20
2018-10-19T18:02:49.148Z,9.90
2018-10-19T18:05:19.064Z,9.40
2018-10-19T18:07:48.972Z,10.70
2018-10-19T18:10:16.830Z,11.00
2018-10-19T18:12:45.729Z,12.90
2018-10-19T18:15:13.646Z,11.10
2018-10-19T18:17:45.994Z,12.07
2018-10-19T18:20:13.824Z,14.43
2018-10-19T18:22:43.678Z,23.33
2018-10-19T18:25:13.380Z,161.40
2018-10-19T18:27:41.276Z,205.10
2018-10-19T18:30:09.239Z,138.20
2018-10-19T18:32:38.756Z,48.77
2018-10-19T18:35:07.523Z,51.33
2018-10-19T18:37:38.989Z,68.83
2018-10-19T18:40:08.131Z,62.30
2018-10-19T18:42:37.048Z,79.03
2018-10-19T18:45:05.423Z,27.73
2018-10-19T18:47:33.284Z,21.50
2018-10-19T18:50:01.178Z,16.77
2018-10-19T18:52:29.037Z,15.63
2018-10-19T18:55:02.804Z,19.53
2018-10-19T18:57:30.692Z,21.03
2018-10-19T18:59:58.531Z,23.17
2018-10-19T19:02:27.425Z,25.50
2018-10-19T19:04:55.855Z,24.67
2018-10-19T19:07:23.856Z,28.70
2018-10-19T19:09:57.190Z,23.73
2018-10-19T19:12:25.156Z,19.13
2018-10-19T19:14:53.044Z,17.90
2018-10-19T19:17:20.912Z,18.90
2018-10-19T19:19:56.427Z,19.60
2018-10-19T19:22:24.305Z,18.07
2018-10-19T19:24:58.679Z,17.40
2018-10-19T19:27:26.564Z,17.33
2018-10-19T19:30:00.961Z,18.70
2018-10-19T19:32:29.812Z,18.30
2018-10-19T19:34:57.708Z,18.63
2018-10-19T19:37:25.556Z,17.13
2018-10-19T19:39:53.487Z,15.73
2018-10-19T19:42:27.764Z,15.67
2018-10-19T19:44:55.683Z,16.53
2018-10-19T19:47:29.047Z,17.10
2018-10-19T19:50:02.152Z,16.50
2018-10-19T19:52:30.060Z,16.60
2018-10-19T19:54:57.905Z,16.30
2018-10-19T19:57:25.791Z,16.43
2018-10-19T19:59:53.988Z,17.50
2018-10-19T20:02:21.956Z,16.87
2018-10-19T20:04:49.787Z,16.25
2018-10-19T20:07:18.687Z,15.73
2018-10-19T20:09:46.710Z,15.70
2018-10-19T20:12:14.675Z,16.40
2018-10-19T20:14:42.480Z,17.87
2018-10-19T20:17:10.374Z,24.83
2018-10-19T20:19:38.216Z,21.83
2018-10-19T20:22:06.059Z,18.85
2018-10-19T20:24:33.948Z,24.67
2018-10-19T20:27:02.810Z,22.10
2018-10-19T20:29:30.741Z,21.13
2018-10-19T20:31:58.621Z,20.53
2018-10-19T20:34:26.408Z,20.07
2018-10-19T20:36:54.300Z,21.30
2018-10-19T20:39:22.180Z,18.93
2018-10-19T20:41:50.048Z,20.40
2018-10-19T20:44:17.917Z,17.93
2018-10-19T20:46:45.771Z,18.30
2018-10-19T20:49:13.616Z,19.97
2018-10-19T20:51:41.504Z,18.73
2018-10-19T20:54:18.661Z,18.93
2018-10-19T20:56:46.588Z,18.80
2018-10-19T20:59:14.469Z,20.63
2018-10-19T21:01:42.274Z,17.17
2018-10-19T21:04:11.180Z,17.07
2018-10-19T21:06:39.028Z,20.03
2018-10-19T21:09:07.859Z,20.50
2018-10-19T21:11:35.704Z,18.10
2018-10-19T21:14:04.959Z,18.67
2018-10-19T21:16:32.770Z,20.27
2018-10-19T21:19:00.703Z,19.83
2018-10-19T21:21:28.504Z,19.73
2018-10-19T21:23:56.360Z,19.47
2018-10-19T21:26:24.275Z,19.07
2018-10-19T21:28:52.092Z,19.00
2018-10-19T21:31:19.999Z,17.20
2018-10-19T21:33:47.925Z,17.40
2018-10-19T21:38:42.832Z,17.50
2018-10-19T21:43:37.784Z,19.55
2018-10-19T21:46:05.634Z,18.20
2018-10-19T21:48:33.501Z,18.30
2018-10-19T21:53:28.384Z,17.70
2018-10-19T21:55:56.309Z,18.40
2018-10-19T21:58:24.137Z,18.30
2018-10-19T22:00:52.044Z,17.03
2018-10-19T22:03:19.863Z,16.60
2018-10-19T22:05:47.744Z,30.23
2018-10-19T22:08:15.623Z,18.37
2018-10-19T22:10:43.553Z,17.07
2018-10-19T22:13:11.527Z,20.60
2018-10-19T22:15:39.324Z,34.70
2018-10-19T22:18:07.184Z,29.23
2018-10-19T22:20:36.064Z,24.60
2018-10-19T22:23:04.005Z,25.60
2018-10-19T22:25:31.855Z,20.90
2018-10-19T22:27:59.784Z,23.80
2018-10-19T22:30:27.653Z,28.97
2018-10-19T22:32:56.512Z,19.00
2018-10-19T22:35:24.379Z,18.05
2018-10-19T22:37:52.288Z,17.97
2018-10-19T22:40:20.124Z,16.50
2018-10-19T22:42:48.020Z,16.50
2018-10-19T22:45:15.872Z,15.93
2018-10-19T22:47:43.713Z,15.35
2018-10-19T22:50:11.653Z,16.70
2018-10-19T22:52:39.545Z,15.57
2018-10-19T22:55:07.470Z,15.00
2018-10-19T22:57:35.388Z,15.83
2018-10-19T23:00:03.283Z,16.20
2018-10-19T23:02:31.181Z,14.53
2018-10-19T23:04:59.187Z,13.90
2018-10-19T23:07:27.096Z,14.30
2018-10-19T23:09:54.944Z,14.40
2018-10-19T23:12:22.781Z,14.87
2018-10-19T23:19:44.784Z,14.63
2018-10-19T23:27:07.848Z,15.70
2018-10-19T23:29:35.721Z,15.40
2018-10-19T23:32:03.605Z,14.60
2018-10-19T23:34:31.460Z,14.30
2018-10-19T23:36:59.383Z,14.53
2018-10-19T23:39:27.180Z,16.13
2018-10-19T23:41:55.072Z,15.07
2018-10-19T23:44:22.909Z,15.80
2018-10-19T23:46:50.778Z,15.10
2018-10-19T23:49:18.703Z,14.40
2018-10-19T23:51:46.523Z,14.90
2018-10-19T23:54:14.404Z,14.73
2018-10-19T23:56:42.280Z,14.93
2018-10-19T23:59:10.159Z,16.70
